createdAt,value
2023-08-21T00:00:23.284Z,20.22
2023-08-21T00:01:23.296Z,20.31
2023-08-21T00:02:23.279Z,20.29
2023-08-21T00:03:23.296Z,20.36
2023-08-21T00:04:23.209Z,20.34
2023-08-21T00:05:23.226Z,20.40
2023-08-21T00:06:23.233Z,20.36
2023-08-21T00:07:23.152Z,20.48
2023-08-21T00:08:23.140Z,20.43
2023-08-21T00:09:23.116Z,20.40
2023-08-21T00:10:23.138Z,20.16
2023-08-21T00:11:23.084Z,20.19
2023-08-21T00:12:23.061Z,20.09
2023-08-21T00:13:23.041Z,20.02
2023-08-21T00:14:23.067Z,20.07
2023-08-21T00:15:23.032Z,20.10
2023-08-21T00:16:23.064Z,20.04
2023-08-21T00:17:22.962Z,20.00
2023-08-21T00:18:22.950Z,20.06
2023-08-21T00:19:22.932Z,20.06
2023-08-21T00:20:22.936Z,20.00
2023-08-21T00:21:22.889Z,19.94
2023-08-21T00:22:22.876Z,19.88
2023-08-21T00:23:22.856Z,19.91
2023-08-21T00:24:22.836Z,19.89
2023-08-21T00:25:22.854Z,19.88
2023-08-21T00:26:22.796Z,19.94
2023-08-21T00:27:22.775Z,20.06
2023-08-21T00:28:22.788Z,20.09
2023-08-21T00:29:22.778Z,20.07
2023-08-21T00:30:22.775Z,20.14
2023-08-21T00:31:22.711Z,20.18
2023-08-21T00:32:22.693Z,20.26
2023-08-21T00:33:22.681Z,20.11
2023-08-21T00:34:22.677Z,20.22
2023-08-21T00:35:22.620Z,20.11
2023-08-21T00:36:22.601Z,20.19
2023-08-21T00:37:22.583Z,20.11
2023-08-21T00:38:22.569Z,20.10
2023-08-21T00:39:22.574Z,20.06
2023-08-21T00:40:22.541Z,20.07
2023-08-21T00:41:22.512Z,20.11
2023-08-21T00:42:22.492Z,20.13
2023-08-21T00:43:22.499Z,20.19
2023-08-21T00:44:22.481Z,20.32
2023-08-21T00:45:22.434Z,20.37
2023-08-21T00:46:22.443Z,20.26
2023-08-21T00:47:22.407Z,20.32
2023-08-21T00:48:22.400Z,20.16
2023-08-21T00:49:22.357Z,20.19
2023-08-21T00:50:22.342Z,20.25
2023-08-21T00:51:22.324Z,20.14
2023-08-21T00:52:22.307Z,20.26
2023-08-21T00:53:22.316Z,20.26
2023-08-21T00:54:22.265Z,20.31
2023-08-21T00:55:22.246Z,20.31
2023-08-21T00:56:22.231Z,20.36
2023-08-21T00:57:22.241Z,20.34
2023-08-21T00:58:22.233Z,20.47
2023-08-21T00:59:22.181Z,20.58
2023-08-21T01:00:22.157Z,20.66
2023-08-21T01:01:22.167Z,20.59
2023-08-21T01:02:22.158Z,20.62
2023-08-21T01:03:22.147Z,20.67
2023-08-21T01:04:22.104Z,20.67
2023-08-21T01:05:22.082Z,20.66
2023-08-21T01:06:22.032Z,20.75
2023-08-21T01:07:22.044Z,20.67
2023-08-21T01:08:21.999Z,20.69
2023-08-21T01:09:21.981Z,20.67
2023-08-21T01:10:21.960Z,20.58
2023-08-21T01:11:21.967Z,20.58
2023-08-21T01:12:21.952Z,20.50
2023-08-21T01:13:21.905Z,20.50
2023-08-21T01:14:21.887Z,20.59
2023-08-21T01:15:21.870Z,20.63
2023-08-21T01:16:21.912Z,20.65
2023-08-21T01:17:21.847Z,20.75
2023-08-21T01:18:21.821Z,20.72
2023-08-21T01:19:21.804Z,20.74
2023-08-21T01:20:21.811Z,20.70
2023-08-21T01:21:21.798Z,20.85
2023-08-21T01:22:21.742Z,20.77
2023-08-21T01:23:21.735Z,20.87
2023-08-21T01:24:21.721Z,20.82
2023-08-21T01:25:21.713Z,20.88
2023-08-21T01:26:21.695Z,20.88
2023-08-21T01:27:21.643Z,20.88
2023-08-21T01:28:21.626Z,20.80
2023-08-21T01:29:21.614Z,20.80
2023-08-21T01:30:21.624Z,20.87
2023-08-21T01:31:21.634Z,20.72
2023-08-21T01:32:21.552Z,20.62
2023-08-21T01:33:21.536Z,20.43
2023-08-21T01:34:21.520Z,20.40
2023-08-21T01:35:21.525Z,20.37
2023-08-21T01:36:21.484Z,20.22
2023-08-21T01:37:21.466Z,20.34
2023-08-21T01:38:21.457Z,20.31
2023-08-21T01:39:21.463Z,20.28
2023-08-21T01:40:21.473Z,20.39
2023-08-21T01:41:21.398Z,20.37
2023-08-21T01:42:21.371Z,20.47
2023-08-21T01:43:21.349Z,20.43
2023-08-21T01:44:21.363Z,20.39
2023-08-21T01:45:21.319Z,20.36
2023-08-21T01:46:21.388Z,20.31
2023-08-21T01:47:21.271Z,20.21
2023-08-21T01:48:21.270Z,20.28
2023-08-21T01:49:21.292Z,20.16
2023-08-21T01:50:21.222Z,20.29
2023-08-21T01:51:21.217Z,20.31
2023-08-21T01:52:21.195Z,20.37
2023-08-21T01:53:21.189Z,20.44
2023-08-21T01:54:21.171Z,20.56
2023-08-21T01:55:21.123Z,20.58
2023-08-21T01:56:21.107Z,20.65
2023-08-21T01:57:21.116Z,20.58
2023-08-21T01:58:21.094Z,20.36
2023-08-21T01:59:21.048Z,20.24
2023-08-21T02:00:21.059Z,20.04
2023-08-21T02:01:21.031Z,20.07
2023-08-21T02:02:21.037Z,20.21
2023-08-21T02:03:21.116Z,20.16
2023-08-21T02:04:20.952Z,20.22
2023-08-21T02:05:20.935Z,20.16
2023-08-21T02:06:20.911Z,20.00
2023-08-21T02:07:20.926Z,19.89
2023-08-21T02:08:20.902Z,19.88
2023-08-21T02:09:20.851Z,19.85
2023-08-21T02:10:20.851Z,19.88
2023-08-21T02:11:20.820Z,19.76
2023-08-21T02:12:20.824Z,19.81
2023-08-21T02:13:20.789Z,19.73
2023-08-21T02:14:20.766Z,19.82
2023-08-21T02:15:20.735Z,19.77
2023-08-21T02:16:20.722Z,19.77
2023-08-21T02:17:20.729Z,19.86
2023-08-21T02:18:20.707Z,19.82
2023-08-21T02:19:20.671Z,19.86
2023-08-21T02:20:20.649Z,19.94
2023-08-21T02:21:20.666Z,19.86
2023-08-21T02:22:20.640Z,19.94
2023-08-21T02:23:20.587Z,20.03
2023-08-21T02:24:20.580Z,19.86
2023-08-21T02:25:20.554Z,19.89
2023-08-21T02:26:20.571Z,19.91
2023-08-21T02:27:20.556Z,19.89
2023-08-21T02:28:20.494Z,19.91
2023-08-21T02:29:20.476Z,19.88
2023-08-21T02:30:20.459Z,20.04
2023-08-21T02:31:20.496Z,20.09
2023-08-21T02:32:20.418Z,20.07
2023-08-21T02:33:20.440Z,20.06
2023-08-21T02:34:20.380Z,20.04
2023-08-21T02:35:20.390Z,19.92
2023-08-21T02:36:20.381Z,20.00
2023-08-21T02:37:20.327Z,19.91
2023-08-21T02:38:20.300Z,20.03
2023-08-21T02:39:20.289Z,19.99
2023-08-21T02:40:20.306Z,20.02
2023-08-21T02:41:20.255Z,19.99
2023-08-21T02:42:20.223Z,19.95
2023-08-21T02:43:20.210Z,19.94
2023-08-21T02:44:20.222Z,20.04
2023-08-21T02:45:20.240Z,20.02
2023-08-21T02:46:20.214Z,20.03
2023-08-21T02:47:20.152Z,20.02
2023-08-21T02:48:20.175Z,20.06
2023-08-21T02:49:20.136Z,20.07
2023-08-21T02:50:20.109Z,20.07
2023-08-21T02:51:20.111Z,20.04
2023-08-21T02:52:20.038Z,20.07
2023-08-21T02:53:20.015Z,20.10
2023-08-21T02:54:20.004Z,20.06
2023-08-21T02:55:20.008Z,20.06
2023-08-21T02:56:19.970Z,20.06
2023-08-21T02:57:19.944Z,20.04
2023-08-21T02:58:19.918Z,20.02
2023-08-21T02:59:19.938Z,20.03
2023-08-21T03:00:19.884Z,20.00
2023-08-21T03:01:19.919Z,19.92
2023-08-21T03:02:19.886Z,19.96
2023-08-21T03:03:19.941Z,19.99
2023-08-21T03:04:19.833Z,19.96
2023-08-21T03:05:19.803Z,19.94
2023-08-21T03:06:19.791Z,19.95
2023-08-21T03:07:19.766Z,19.96
2023-08-21T03:08:19.776Z,19.96
2023-08-21T03:09:19.720Z,20.11
2023-08-21T03:10:19.761Z,19.95
2023-08-21T03:11:19.676Z,20.10
2023-08-21T03:12:19.657Z,20.02
2023-08-21T03:13:20.615Z,19.94
2023-08-21T03:14:20.641Z,19.89
2023-08-21T03:15:19.589Z,19.99
2023-08-21T03:16:19.632Z,19.99
2023-08-21T03:17:19.584Z,19.92
2023-08-21T03:18:19.626Z,19.89
2023-08-21T03:19:19.515Z,19.88
2023-08-21T03:20:19.501Z,19.92
2023-08-21T03:21:19.474Z,19.88
2023-08-21T03:22:19.483Z,19.89
2023-08-21T03:23:19.442Z,19.82
2023-08-21T03:24:19.417Z,19.82
2023-08-21T03:25:19.398Z,19.91
2023-08-21T03:26:19.384Z,19.85
2023-08-21T03:27:19.387Z,19.82
2023-08-21T03:28:19.339Z,19.84
2023-08-21T03:29:19.319Z,19.74
2023-08-21T03:30:19.294Z,19.70
2023-08-21T03:31:19.348Z,19.70
2023-08-21T03:32:19.291Z,19.77
2023-08-21T03:33:19.307Z,19.71
2023-08-21T03:34:19.221Z,19.66
2023-08-21T03:35:19.231Z,19.81
2023-08-21T03:36:19.183Z,19.71
2023-08-21T03:37:19.222Z,19.70
2023-08-21T03:38:19.142Z,19.67
2023-08-21T03:39:19.137Z,19.70
2023-08-21T03:40:19.106Z,19.66
2023-08-21T03:41:19.116Z,19.70
2023-08-21T03:42:19.071Z,19.69
2023-08-21T03:43:19.050Z,19.64
2023-08-21T03:44:19.027Z,19.69
2023-08-21T03:45:19.039Z,19.74
2023-08-21T03:46:19.143Z,19.63
2023-08-21T03:47:18.972Z,19.69
2023-08-21T03:48:18.956Z,19.69
2023-08-21T03:49:20.845Z,19.76
2023-08-21T03:50:19.943Z,19.64
2023-08-21T03:51:18.893Z,19.74
2023-08-21T03:52:18.878Z,19.73
2023-08-21T03:53:18.855Z,19.67
2023-08-21T03:54:18.846Z,19.64
2023-08-21T03:55:18.834Z,19.67
2023-08-21T03:56:18.788Z,19.64
2023-08-21T03:57:19.773Z,19.69
2023-08-21T03:58:18.758Z,19.69
2023-08-21T03:59:18.772Z,19.63
2023-08-21T04:00:18.746Z,19.66
2023-08-21T04:01:18.727Z,19.63
2023-08-21T04:02:18.675Z,19.79
2023-08-21T04:03:18.702Z,19.71
2023-08-21T04:04:18.698Z,19.64
2023-08-21T04:05:18.627Z,19.66
2023-08-21T04:06:18.596Z,19.69
2023-08-21T04:07:18.582Z,19.62
2023-08-21T04:08:18.587Z,19.73
2023-08-21T04:09:18.569Z,19.66
2023-08-21T04:10:18.517Z,19.55
2023-08-21T04:11:18.497Z,19.69
2023-08-21T04:12:18.481Z,19.63
2023-08-21T04:13:18.487Z,19.58
2023-08-21T04:14:18.441Z,19.59
2023-08-21T04:15:18.412Z,19.55
2023-08-21T04:16:18.485Z,19.44
2023-08-21T04:17:18.377Z,19.56
2023-08-21T04:18:30.320Z,19.59
2023-08-21T04:19:20.336Z,19.54
2023-08-21T04:20:18.328Z,19.55
2023-08-21T04:21:18.296Z,19.52
2023-08-21T04:22:18.345Z,19.58
2023-08-21T04:23:18.285Z,19.62
2023-08-21T04:24:18.241Z,19.63
2023-08-21T04:25:18.218Z,19.67
2023-08-21T04:26:18.201Z,19.62
2023-08-21T04:27:18.212Z,19.67
2023-08-21T04:28:18.191Z,19.67
2023-08-21T04:29:18.151Z,19.56
2023-08-21T04:30:18.125Z,19.64
2023-08-21T04:31:18.163Z,19.64
2023-08-21T04:32:18.133Z,19.74
2023-08-21T04:33:18.063Z,19.88
2023-08-21T04:34:18.047Z,19.91
2023-08-21T04:35:18.036Z,20.02
2023-08-21T04:36:18.005Z,20.16
2023-08-21T04:37:18.014Z,20.47
2023-08-21T04:38:17.967Z,20.70
2023-08-21T04:39:17.989Z,20.85
2023-08-21T04:40:17.928Z,21.02
2023-08-21T04:41:17.938Z,21.37
2023-08-21T04:42:17.915Z,21.57
2023-08-21T04:43:17.866Z,21.79
2023-08-21T04:44:17.852Z,22.00
2023-08-21T04:45:17.848Z,22.26
2023-08-21T04:46:17.861Z,22.48
2023-08-21T04:47:17.797Z,22.76
2023-08-21T04:48:17.777Z,23.00
2023-08-21T04:49:17.756Z,23.24
2023-08-21T04:50:17.750Z,23.40
2023-08-21T04:51:17.746Z,23.56
2023-08-21T04:52:17.703Z,23.73
2023-08-21T04:53:17.685Z,24.06
2023-08-21T04:54:17.661Z,24.36
2023-08-21T04:55:17.681Z,24.54
2023-08-21T04:56:17.654Z,24.65
2023-08-21T04:57:17.601Z,24.92
2023-08-21T04:58:17.576Z,25.13
2023-08-21T04:59:18.575Z,25.33
2023-08-21T05:00:17.597Z,25.63
2023-08-21T05:01:17.588Z,25.87
2023-08-21T05:02:17.517Z,26.23
2023-08-21T05:03:17.579Z,26.43
2023-08-21T05:04:17.526Z,26.62
2023-08-21T05:05:17.492Z,26.90
2023-08-21T05:06:17.430Z,27.12
2023-08-21T05:07:18.416Z,27.32
2023-08-21T05:08:17.397Z,27.63
2023-08-21T05:09:17.419Z,27.52
2023-08-21T05:10:17.400Z,27.48
2023-08-21T05:11:17.351Z,27.51
2023-08-21T05:12:17.330Z,27.59
2023-08-21T05:13:17.313Z,27.86
2023-08-21T05:14:17.325Z,28.15
2023-08-21T05:15:17.300Z,28.42
2023-08-21T05:16:17.288Z,28.75
2023-08-21T05:17:17.248Z,29.02
2023-08-21T05:18:17.254Z,29.27
2023-08-21T05:19:17.231Z,28.85
2023-08-21T05:20:17.186Z,28.30
2023-08-21T05:21:17.168Z,27.85
2023-08-21T05:22:17.155Z,27.25
2023-08-21T05:23:17.155Z,26.53
2023-08-21T05:24:17.146Z,25.95
2023-08-21T05:25:17.098Z,25.80
2023-08-21T05:26:17.079Z,25.62
2023-08-21T05:27:17.059Z,25.07
2023-08-21T05:28:17.078Z,24.73
2023-08-21T05:29:17.058Z,24.65
2023-08-21T05:30:17.016Z,24.66
2023-08-21T05:31:16.988Z,24.53
2023-08-21T05:32:16.973Z,24.48
2023-08-21T05:33:16.984Z,24.35
2023-08-21T05:34:16.938Z,24.38
2023-08-21T05:35:16.914Z,24.24
2023-08-21T05:36:16.900Z,24.43
2023-08-21T05:37:16.901Z,24.98
2023-08-21T05:38:16.882Z,25.53
2023-08-21T05:39:16.842Z,26.31
2023-08-21T05:40:16.819Z,26.47
2023-08-21T05:41:16.861Z,26.75
2023-08-21T05:42:16.821Z,26.77
2023-08-21T05:43:16.764Z,26.65
2023-08-21T05:44:16.750Z,27.17
2023-08-21T05:45:16.721Z,27.60
2023-08-21T05:46:16.715Z,28.00
2023-08-21T05:47:16.716Z,28.17
2023-08-21T05:48:16.676Z,28.57
2023-08-21T05:49:16.659Z,28.41
2023-08-21T05:50:16.627Z,28.38
2023-08-21T05:51:16.672Z,29.01
2023-08-21T05:52:16.628Z,29.36
2023-08-21T05:53:16.599Z,29.90
2023-08-21T05:54:16.569Z,30.57
2023-08-21T05:55:16.548Z,30.59
2023-08-21T05:56:16.568Z,30.69
2023-08-21T05:57:16.515Z,30.54
2023-08-21T05:58:16.512Z,30.80
2023-08-21T05:59:16.479Z,30.92
2023-08-21T06:00:16.490Z,30.44
2023-08-21T06:01:16.510Z,30.16
2023-08-21T06:02:16.433Z,29.57
2023-08-21T06:03:16.514Z,29.19
2023-08-21T06:04:16.467Z,29.42
2023-08-21T06:05:16.406Z,29.73
2023-08-21T06:06:16.362Z,29.31
2023-08-21T06:07:16.354Z,29.23
2023-08-21T06:08:16.325Z,29.54
2023-08-21T06:09:16.311Z,29.87
2023-08-21T06:10:16.326Z,30.25
2023-08-21T06:11:16.275Z,30.09
2023-08-21T06:12:16.254Z,30.48
2023-08-21T06:13:16.239Z,30.77
2023-08-21T06:14:16.223Z,30.54
2023-08-21T06:15:16.233Z,30.65
2023-08-21T06:16:16.212Z,30.81
2023-08-21T06:17:16.190Z,30.61
2023-08-21T06:18:16.173Z,30.65
2023-08-21T06:19:16.173Z,30.99
2023-08-21T06:20:16.144Z,31.03
2023-08-21T06:21:16.133Z,30.78
2023-08-21T06:22:16.102Z,30.03
2023-08-21T06:23:16.075Z,29.54
2023-08-21T06:24:16.080Z,29.27
2023-08-21T06:25:16.043Z,29.87
2023-08-21T06:26:16.026Z,29.91
2023-08-21T06:27:16.012Z,29.71
2023-08-21T06:28:15.991Z,29.94
2023-08-21T06:29:16.005Z,29.97
2023-08-21T06:30:15.961Z,30.50
2023-08-21T06:31:15.996Z,31.07
2023-08-21T06:32:15.935Z,31.66
2023-08-21T06:33:15.976Z,32.15
2023-08-21T06:34:15.944Z,32.15
2023-08-21T06:35:15.886Z,31.81
2023-08-21T06:36:15.884Z,30.91
2023-08-21T06:37:15.849Z,30.96
2023-08-21T06:38:15.865Z,31.02
2023-08-21T06:39:15.823Z,30.02
2023-08-21T06:40:15.814Z,30.06
2023-08-21T06:41:15.793Z,29.84
2023-08-21T06:42:15.776Z,30.43
2023-08-21T06:43:15.792Z,30.39
2023-08-21T06:44:15.748Z,30.54
2023-08-21T06:45:15.729Z,30.48
2023-08-21T06:46:15.762Z,30.40
2023-08-21T06:47:15.725Z,30.94
2023-08-21T06:48:15.702Z,30.80
2023-08-21T06:49:15.660Z,30.27
2023-08-21T06:50:15.654Z,30.59
2023-08-21T06:51:17.595Z,30.75
2023-08-21T06:52:16.639Z,31.15
2023-08-21T06:53:15.665Z,31.36
2023-08-21T06:54:15.579Z,30.92
2023-08-21T06:55:15.569Z,30.83
2023-08-21T06:56:15.539Z,31.42
2023-08-21T06:57:15.580Z,31.78
2023-08-21T06:58:15.517Z,32.26
2023-08-21T06:59:15.497Z,31.76
2023-08-21T07:00:15.513Z,31.18
2023-08-21T07:01:15.528Z,30.19
2023-08-21T07:02:15.480Z,30.39
2023-08-21T07:03:15.557Z,30.57
2023-08-21T07:04:15.462Z,30.62
2023-08-21T07:05:15.417Z,30.06
2023-08-21T07:06:15.406Z,30.78
2023-08-21T07:07:15.358Z,31.34
2023-08-21T07:08:15.383Z,32.12
2023-08-21T07:09:15.328Z,31.80
2023-08-21T07:10:15.315Z,31.42
2023-08-21T07:11:16.950Z,31.84
2023-08-21T07:12:16.288Z,32.11
2023-08-21T07:13:15.282Z,32.48
2023-08-21T07:14:15.256Z,33.20
2023-08-21T07:15:15.262Z,33.94
2023-08-21T07:16:15.338Z,33.39
2023-08-21T07:17:15.200Z,32.77
2023-08-21T07:18:15.375Z,31.59
2023-08-21T07:19:15.174Z,30.54
2023-08-21T07:20:15.184Z,30.02
2023-08-21T07:21:30.959Z,29.29
2023-08-21T07:22:17.151Z,28.72
2023-08-21T07:23:15.107Z,27.27
2023-08-21T07:24:15.111Z,26.90
2023-08-21T07:25:15.121Z,26.45
2023-08-21T07:26:15.076Z,26.44
2023-08-21T07:27:15.047Z,26.45
2023-08-21T07:28:15.029Z,26.70
2023-08-21T07:29:15.037Z,26.62
2023-08-21T07:30:15.019Z,26.55
2023-08-21T07:31:15.031Z,26.23
2023-08-21T07:32:15.013Z,25.70
2023-08-21T07:33:14.949Z,25.66
2023-08-21T07:34:14.953Z,25.38
2023-08-21T07:35:14.908Z,25.53
2023-08-21T07:36:15.126Z,25.33
2023-08-21T07:37:15.868Z,25.23
2023-08-21T07:38:14.855Z,25.16
2023-08-21T07:39:14.863Z,24.98
2023-08-21T07:40:14.825Z,25.08
2023-08-21T07:41:14.815Z,25.23
2023-08-21T07:42:14.781Z,26.09
2023-08-21T07:43:14.790Z,27.36
2023-08-21T07:44:14.777Z,27.47
2023-08-21T07:45:14.783Z,27.83
2023-08-21T07:46:14.895Z,28.57
2023-08-21T07:47:14.705Z,28.97
2023-08-21T07:48:15.258Z,29.27
2023-08-21T07:49:15.661Z,29.45
2023-08-21T07:50:14.638Z,29.68
2023-08-21T07:51:14.625Z,30.18
2023-08-21T07:52:14.608Z,30.53
2023-08-21T07:53:14.622Z,30.84
2023-08-21T07:54:14.573Z,30.90
2023-08-21T07:55:14.559Z,30.96
2023-08-21T07:56:14.613Z,31.14
2023-08-21T07:57:14.550Z,31.74
2023-08-21T07:58:14.530Z,32.31
2023-08-21T07:59:14.486Z,32.41
2023-08-21T08:00:14.472Z,32.33
2023-08-21T08:01:14.465Z,32.18
2023-08-21T08:02:14.462Z,32.45
2023-08-21T08:03:14.458Z,33.00
2023-08-21T08:04:14.451Z,33.58
2023-08-21T08:05:14.391Z,33.09
2023-08-21T08:06:14.375Z,32.65
2023-08-21T08:07:14.408Z,32.75
2023-08-21T08:08:14.345Z,33.14
2023-08-21T08:09:14.325Z,33.05
2023-08-21T08:10:14.316Z,33.15
2023-08-21T08:11:14.323Z,32.74
2023-08-21T08:12:14.307Z,32.68
2023-08-21T08:13:14.266Z,33.12
2023-08-21T08:14:14.241Z,33.30
2023-08-21T08:15:15.228Z,33.23
2023-08-21T08:16:14.277Z,33.28
2023-08-21T08:17:14.200Z,33.46
2023-08-21T08:18:14.188Z,33.64
2023-08-21T08:19:14.169Z,33.02
2023-08-21T08:20:14.181Z,32.51
2023-08-21T08:21:14.169Z,31.24
2023-08-21T08:22:14.113Z,31.61
2023-08-21T08:23:14.123Z,31.69
2023-08-21T08:24:14.079Z,31.39
2023-08-21T08:25:14.069Z,31.62
2023-08-21T08:26:14.063Z,32.27
2023-08-21T08:27:14.031Z,32.60
2023-08-21T08:28:14.038Z,32.80
2023-08-21T08:29:14.001Z,32.00
2023-08-21T08:30:14.019Z,31.24
2023-08-21T08:31:14.002Z,31.43
2023-08-21T08:32:13.948Z,30.51
2023-08-21T08:33:13.953Z,31.21
2023-08-21T08:34:13.954Z,32.12
2023-08-21T08:35:13.932Z,32.22
2023-08-21T08:36:13.892Z,32.22
2023-08-21T08:37:13.873Z,31.90
2023-08-21T08:38:13.871Z,31.74
2023-08-21T08:39:13.876Z,32.07
2023-08-21T08:40:13.833Z,32.16
2023-08-21T08:41:13.835Z,31.14
2023-08-21T08:42:13.788Z,29.98
2023-08-21T08:43:13.794Z,29.02
2023-08-21T08:44:13.791Z,28.39
2023-08-21T08:45:13.765Z,28.39
2023-08-21T08:46:13.792Z,28.54
2023-08-21T08:47:13.710Z,29.32
2023-08-21T08:48:13.781Z,29.78
2023-08-21T08:49:13.679Z,30.06
2023-08-21T08:50:13.659Z,30.31
2023-08-21T08:51:13.643Z,30.06
2023-08-21T08:52:13.657Z,30.02
2023-08-21T08:53:16.779Z,30.28
2023-08-21T08:54:14.594Z,30.46
2023-08-21T08:55:13.580Z,30.10
2023-08-21T08:56:13.563Z,29.08
2023-08-21T08:57:13.552Z,28.79
2023-08-21T08:58:13.565Z,29.19
2023-08-21T08:59:13.514Z,29.69
2023-08-21T09:00:13.497Z,30.16
2023-08-21T09:01:13.501Z,30.57
2023-08-21T09:02:13.501Z,31.03
2023-08-21T09:03:13.640Z,31.06
2023-08-21T09:04:13.445Z,30.94
2023-08-21T09:05:13.413Z,30.72
2023-08-21T09:06:13.432Z,30.10
2023-08-21T09:07:13.386Z,29.56
2023-08-21T09:08:13.365Z,29.66
2023-08-21T09:09:13.351Z,30.51
2023-08-21T09:10:13.370Z,31.29
2023-08-21T09:11:13.349Z,31.69
2023-08-21T09:12:13.345Z,31.94
2023-08-21T09:13:13.280Z,31.70
2023-08-21T09:14:13.289Z,30.77
2023-08-21T09:15:13.252Z,30.27
2023-08-21T09:16:13.320Z,30.39
2023-08-21T09:17:13.222Z,30.30
2023-08-21T09:18:13.213Z,30.23
2023-08-21T09:19:13.192Z,29.44
2023-08-21T09:20:13.168Z,29.59
2023-08-21T09:21:14.192Z,29.68
2023-08-21T09:22:13.150Z,29.34
2023-08-21T09:23:13.124Z,29.05
2023-08-21T09:24:13.107Z,28.89
2023-08-21T09:25:13.113Z,28.12
2023-08-21T09:26:13.096Z,28.00
2023-08-21T09:27:13.048Z,27.78
2023-08-21T09:28:13.032Z,28.10
2023-08-21T09:29:13.013Z,28.52
2023-08-21T09:30:13.069Z,28.82
2023-08-21T09:31:13.011Z,29.04
2023-08-21T09:32:12.980Z,29.38
2023-08-21T09:33:12.945Z,29.69
2023-08-21T09:34:12.940Z,30.18
2023-08-21T09:35:12.940Z,29.73
2023-08-21T09:36:12.893Z,29.73
2023-08-21T09:37:12.917Z,29.34
2023-08-21T09:38:12.861Z,29.04
2023-08-21T09:39:12.873Z,28.72
2023-08-21T09:40:12.859Z,28.69
2023-08-21T09:41:12.820Z,28.49
2023-08-21T09:42:12.805Z,28.56
2023-08-21T09:43:12.779Z,28.52
2023-08-21T09:44:12.789Z,28.32
2023-08-21T09:45:12.733Z,28.38
2023-08-21T09:46:12.756Z,27.89
2023-08-21T09:47:12.734Z,28.05
2023-08-21T09:48:12.748Z,28.54
2023-08-21T09:49:12.729Z,28.89
2023-08-21T09:50:12.658Z,29.07
2023-08-21T09:51:12.634Z,28.85
2023-08-21T09:52:12.620Z,28.82
2023-08-21T09:53:12.629Z,28.59
2023-08-21T09:54:12.607Z,28.81
2023-08-21T09:55:12.565Z,28.44
2023-08-21T09:56:12.555Z,28.69
2023-08-21T09:57:12.531Z,28.66
2023-08-21T09:58:12.565Z,28.54
2023-08-21T09:59:12.525Z,27.93
2023-08-21T10:00:12.480Z,28.00
2023-08-21T10:01:12.497Z,28.22
2023-08-21T10:02:12.447Z,28.12
2023-08-21T10:03:12.518Z,28.19
2023-08-21T10:04:12.443Z,28.56
2023-08-21T10:05:12.399Z,28.02
2023-08-21T10:06:12.381Z,28.00
2023-08-21T10:07:12.411Z,28.11
2023-08-21T10:08:12.374Z,28.20
2023-08-21T10:09:12.332Z,28.44
2023-08-21T10:10:12.315Z,28.49
2023-08-21T10:11:12.294Z,28.48
2023-08-21T10:12:12.311Z,28.11
2023-08-21T10:13:12.257Z,28.32
2023-08-21T10:14:12.243Z,28.72
2023-08-21T10:15:12.219Z,28.66
2023-08-21T10:16:12.885Z,28.02
2023-08-21T10:17:13.211Z,28.29
2023-08-21T10:18:12.197Z,28.07
2023-08-21T10:19:12.201Z,28.11
2023-08-21T10:20:12.137Z,28.52
2023-08-21T10:21:12.149Z,29.05
2023-08-21T10:22:12.125Z,29.36
2023-08-21T10:23:12.078Z,29.56
2023-08-21T10:24:12.061Z,29.60
2023-08-21T10:25:12.066Z,29.24
2023-08-21T10:26:12.054Z,29.07
2023-08-21T10:27:12.010Z,28.75
2023-08-21T10:28:12.010Z,28.93
2023-08-21T10:29:11.976Z,29.12
2023-08-21T10:30:11.961Z,29.10
2023-08-21T10:31:12.006Z,29.27
2023-08-21T10:32:11.925Z,29.23
2023-08-21T10:33:11.937Z,28.97
2023-08-21T10:34:11.917Z,28.96
2023-08-21T10:35:11.886Z,28.67
2023-08-21T10:36:11.869Z,28.44
2023-08-21T10:37:11.848Z,28.23
2023-08-21T10:38:11.814Z,28.02
2023-08-21T10:39:11.793Z,27.93
2023-08-21T10:40:11.813Z,27.64
2023-08-21T10:41:11.767Z,27.48
2023-08-21T10:42:11.748Z,27.18
2023-08-21T10:43:11.723Z,27.25
2023-08-21T10:44:11.706Z,27.29
2023-08-21T10:45:11.708Z,26.99
2023-08-21T10:46:12.739Z,26.92
2023-08-21T10:47:11.654Z,27.14
2023-08-21T10:48:11.804Z,27.17
2023-08-21T10:49:11.645Z,27.11
2023-08-21T10:50:11.705Z,27.17
2023-08-21T10:51:11.610Z,27.30
2023-08-21T10:52:11.595Z,27.37
2023-08-21T10:53:11.659Z,27.25
2023-08-21T10:54:11.630Z,27.00
2023-08-21T10:55:11.525Z,27.27
2023-08-21T10:56:11.498Z,27.33
2023-08-21T10:57:11.473Z,27.58
2023-08-21T10:58:11.452Z,27.51
2023-08-21T10:59:11.468Z,27.05
2023-08-21T11:00:11.417Z,27.40
2023-08-21T11:01:11.407Z,27.71
2023-08-21T11:02:11.418Z,27.71
2023-08-21T11:03:11.416Z,27.54
2023-08-21T11:04:11.381Z,27.98
2023-08-21T11:05:11.401Z,28.01
2023-08-21T11:06:11.372Z,28.08
2023-08-21T11:07:11.328Z,27.65
2023-08-21T11:08:11.305Z,27.59
2023-08-21T11:09:11.263Z,27.83
2023-08-21T11:10:12.469Z,28.29
2023-08-21T11:11:11.222Z,28.66
2023-08-21T11:12:11.218Z,28.88
2023-08-21T11:13:11.213Z,29.07
2023-08-21T11:14:11.167Z,29.10
2023-08-21T11:15:11.150Z,28.91
2023-08-21T11:16:11.146Z,29.13
2023-08-21T11:17:11.141Z,29.24
2023-08-21T11:18:11.301Z,29.01
2023-08-21T11:19:11.071Z,28.91
2023-08-21T11:20:11.061Z,28.91
2023-08-21T11:21:11.034Z,28.60
2023-08-21T11:22:11.235Z,28.72
2023-08-21T11:23:11.004Z,28.54
2023-08-21T11:24:10.995Z,28.88
2023-08-21T11:25:10.960Z,28.89
2023-08-21T11:26:20.525Z,28.93
2023-08-21T11:27:12.990Z,29.14
2023-08-21T11:28:10.935Z,29.24
2023-08-21T11:29:10.905Z,28.84
2023-08-21T11:30:10.874Z,28.35
2023-08-21T11:31:10.891Z,28.38
2023-08-21T11:32:10.862Z,28.30
2023-08-21T11:33:10.893Z,28.27
2023-08-21T11:34:23.103Z,28.26
2023-08-21T11:35:12.790Z,28.32
2023-08-21T11:36:10.796Z,28.27
2023-08-21T11:37:10.767Z,28.35
2023-08-21T11:38:10.735Z,28.32
2023-08-21T11:39:10.718Z,28.30
2023-08-21T11:40:10.715Z,28.19
2023-08-21T11:41:10.711Z,28.22
2023-08-21T11:42:10.662Z,28.70
2023-08-21T11:43:10.649Z,29.13
2023-08-21T11:44:10.627Z,29.26
2023-08-21T11:45:10.959Z,29.17
2023-08-21T11:46:11.794Z,28.93
2023-08-21T11:47:10.580Z,29.04
2023-08-21T11:48:10.649Z,29.19
2023-08-21T11:49:10.562Z,29.26
2023-08-21T11:50:10.557Z,29.42
2023-08-21T11:51:10.504Z,29.51
2023-08-21T11:52:10.506Z,29.53
2023-08-21T11:53:10.465Z,29.49
2023-08-21T11:54:10.446Z,29.32
2023-08-21T11:55:10.468Z,29.23
2023-08-21T11:56:10.415Z,29.38
2023-08-21T11:57:10.388Z,29.50
2023-08-21T11:58:10.384Z,29.76
2023-08-21T11:59:10.385Z,29.87
2023-08-21T12:00:10.329Z,29.91
2023-08-21T12:01:10.400Z,29.57
2023-08-21T12:02:10.302Z,29.57
2023-08-21T12:03:10.312Z,29.59
2023-08-21T12:04:10.323Z,29.50
2023-08-21T12:05:10.252Z,29.45
2023-08-21T12:06:10.226Z,29.63
2023-08-21T12:07:10.204Z,29.57
2023-08-21T12:08:10.201Z,29.56
2023-08-21T12:09:10.204Z,29.63
2023-08-21T12:10:10.159Z,29.65
2023-08-21T12:11:10.148Z,29.56
2023-08-21T12:12:10.112Z,29.65
2023-08-21T12:13:10.131Z,29.84
2023-08-21T12:14:10.111Z,30.09
2023-08-21T12:15:10.057Z,29.93
2023-08-21T12:16:10.062Z,30.02
2023-08-21T12:17:10.021Z,30.15
2023-08-21T12:18:10.064Z,30.19
2023-08-21T12:19:09.991Z,30.15
2023-08-21T12:20:09.965Z,30.16
2023-08-21T12:21:09.981Z,30.10
2023-08-21T12:22:09.938Z,30.15
2023-08-21T12:23:09.941Z,30.10
2023-08-21T12:24:09.917Z,30.09
2023-08-21T12:25:09.883Z,30.25
2023-08-21T12:26:09.866Z,30.43
2023-08-21T12:27:09.874Z,30.54
2023-08-21T12:28:10.868Z,30.92
2023-08-21T12:29:09.807Z,30.96
2023-08-21T12:30:09.829Z,31.18
2023-08-21T12:31:09.807Z,31.03
2023-08-21T12:32:09.788Z,31.21
2023-08-21T12:33:22.736Z,31.37
2023-08-21T12:34:11.720Z,31.21
2023-08-21T12:35:09.740Z,31.12
2023-08-21T12:36:09.678Z,31.15
2023-08-21T12:37:09.698Z,31.14
2023-08-21T12:38:09.648Z,30.83
2023-08-21T12:39:09.624Z,30.15
2023-08-21T12:40:09.622Z,29.69
2023-08-21T12:41:09.617Z,29.61
2023-08-21T12:42:09.599Z,29.53
2023-08-21T12:43:09.553Z,29.31
2023-08-21T12:44:09.550Z,28.86
2023-08-21T12:45:09.521Z,28.94
2023-08-21T12:46:10.803Z,28.81
2023-08-21T12:47:09.498Z,28.88
2023-08-21T12:48:09.676Z,29.01
2023-08-21T12:49:09.459Z,29.20
2023-08-21T12:50:09.431Z,28.96
2023-08-21T12:51:09.448Z,28.97
2023-08-21T12:52:10.625Z,28.78